Time;durP1;ratioP1;P1;durP2;ratioP2;P2;SDS_P1;SDS_P2;PMS_P1;PMS_P2;Temp;Humidity;BMP_temperature;BMP_pressure;BME280_temperature;BME280_humidity;BME280_pressure;Samples;Min_cycle;Max_cycle;Signal;HPM_P1;HPM_P2
2022/09/22 00:02:23;;;;;;;5.10;3.93;;;;;;;-141.97;61.04;47522.91;5013138;28;20163;-86
2022/09/22 00:04:48;;;;;;;6.13;4.20;;;;;;;-141.97;60.78;47546.00;5013059;28;20202;-86
2022/09/22 00:07:14;;;;;;;5.10;4.03;;;;;;;-141.97;61.74;47553.69;5013021;28;20167;-87
2022/09/22 00:09:39;;;;;;;6.23;4.53;;;;;;;-141.97;61.71;47584.44;5011912;28;20170;-86
2022/09/22 00:12:05;;;;;;;5.27;3.80;;;;;;;-141.97;61.39;47544.06;5011210;28;20212;-86
2022/09/22 00:14:30;;;;;;;6.07;4.43;;;;;;;-141.97;61.84;47549.84;5012818;28;20178;-86
2022/09/22 00:16:59;;;;;;;6.10;4.30;;;;;;;-141.97;61.83;47576.75;5012985;28;20252;-88
2022/09/22 00:19:36;;;;;;;5.70;4.47;;;;;;;-141.97;61.65;47534.44;5045244;28;20205;-86
2022/09/22 00:22:03;;;;;;;6.63;4.53;;;;;;;-141.97;61.79;47544.06;5013113;28;20242;-86
2022/09/22 00:24:30;;;;;;;6.63;4.43;;;;;;;-141.97;61.85;47613.25;5013409;28;20547;-89
2022/09/22 00:26:57;;;;;;;6.90;4.40;;;;;;;-141.97;61.95;47546.00;5012752;28;20166;-86
2022/09/22 00:29:25;;;;;;;6.10;4.40;;;;;;;-141.97;61.67;47549.84;5012687;28;20170;-88
2022/09/22 00:31:50;;;;;;;5.77;4.50;;;;;;;-141.97;61.48;47530.59;5012326;28;20581;-87
2022/09/22 00:34:21;;;;;;;6.10;4.60;;;;;;;-141.97;61.80;47534.44;5012339;28;20171;-87
2022/09/22 00:36:47;;;;;;;7.43;4.70;;;;;;;-141.97;61.87;47557.53;5012818;28;20166;-87
2022/09/22 00:39:14;;;;;;;5.17;4.17;;;;;;;-141.97;61.76;47538.28;5012701;28;20194;-86
2022/09/22 00:41:43;;;;;;;5.53;4.10;;;;;;;-141.97;62.12;47549.84;5012936;28;20163;-86
2022/09/22 00:44:14;;;;;;;5.27;3.60;;;;;;;-141.97;61.67;47544.06;5012573;28;20151;-86
2022/09/22 00:46:43;;;;;;;6.40;3.47;;;;;;;-141.97;61.99;47638.25;5012661;28;20240;-86
2022/09/22 00:49:10;;;;;;;5.27;3.50;;;;;;;-141.97;62.12;47478.72;5011549;28;20623;-87
2022/09/22 00:51:38;;;;;;;4.40;3.27;;;;;;;-141.97;62.28;47559.44;5010817;28;20210;-85
2022/09/22 00:54:07;;;;;;;4.93;3.60;;;;;;;-141.97;62.29;47509.47;5012560;28;20290;-86
2022/09/22 00:56:40;;;;;;;5.47;3.60;;;;;;;-141.97;62.70;47522.91;5012225;28;20163;-86
2022/09/22 00:59:10;;;;;;;6.17;4.17;;;;;;;-141.97;62.66;47551.75;5012084;28;20617;-86
2022/09/22 01:01:38;;;;;;;6.40;4.40;;;;;;;-141.97;63.05;47578.66;5012437;28;20167;-86
2022/09/22 01:04:03;;;;;;;6.30;4.50;;;;;;;-141.97;62.80;47515.22;5012332;28;20155;-87
2022/09/22 01:06:29;;;;;;;7.27;4.90;;;;;;;-141.97;63.06;47565.22;5012709;28;20179;-85
2022/09/22 01:08:56;;;;;;;7.37;4.80;;;;;;;-141.97;62.96;47565.22;5012542;28;20250;-85
2022/09/22 01:11:24;;;;;;;6.43;4.57;;;;;;;-141.97;63.14;47444.13;5011160;28;20190;-86
2022/09/22 01:14:12;;;;;;;8.53;5.03;;;;;;;-141.97;62.68;47532.53;5012788;28;20178;-86
2022/09/22 01:16:53;;;;;;;6.13;4.70;;;;;;;-141.97;62.87;47532.53;5012931;28;20233;-86
2022/09/22 01:19:50;;;;;;;6.87;4.90;;;;;;;-141.97;62.88;47517.16;5012921;28;20194;-85
2022/09/22 01:22:34;;;;;;;8.53;5.30;;;;;;;-141.97;63.16;47515.22;4991087;28;20238;-87
2022/09/22 01:25:29;;;;;;;7.77;4.57;;;;;;;-141.97;63.18;47540.22;4993302;28;20174;-88
2022/09/22 01:27:57;;;;;;;7.13;4.97;;;;;;;-141.97;63.56;47499.84;4994989;28;20739;-87
2022/09/22 01:30:32;;;;;;;7.40;5.27;;;;;;;-141.97;63.94;47532.53;4990710;28;20255;-86
2022/09/22 01:33:09;;;;;;;7.90;5.20;;;;;;;-141.97;64.64;47557.53;4975745;28;20612;-86
2022/09/22 01:35:57;;;;;;;9.10;5.67;;;;;;;-141.97;64.94;47549.84;4975340;28;20171;-87
2022/09/22 01:38:34;;;;;;;8.30;5.30;;;;;;;-141.97;65.21;47507.53;4974814;28;20223;-86
2022/09/22 01:41:08;;;;;;;11.67;5.10;;;;;;;-141.97;65.30;47542.16;4974563;28;20200;-85
2022/09/22 01:43:44;;;;;;;8.27;5.47;;;;;;;-141.97;65.38;47534.44;4974872;28;20168;-87
2022/09/22 01:46:19;;;;;;;8.67;5.70;;;;;;;-141.97;66.25;47557.53;4974644;28;20192;-87
2022/09/22 01:48:49;;;;;;;7.60;5.60;;;;;;;-141.97;65.93;47530.59;4974529;28;20183;-86
2022/09/22 01:51:20;;;;;;;7.10;4.60;;;;;;;-141.97;66.03;47519.06;4990564;28;20269;-85
2022/09/22 01:54:11;;;;;;;9.03;5.27;;;;;;;-141.97;66.25;47526.75;4995601;28;20317;-87
2022/09/22 01:56:40;;;;;;;8.40;5.43;;;;;;;-141.97;66.35;47494.09;4994553;28;20163;-86
2022/09/22 01:59:08;;;;;;;7.37;4.77;;;;;;;-141.97;66.14;47422.97;5005713;28;20214;-86
2022/09/22 02:01:53;;;;;;;6.83;5.00;;;;;;;-141.97;66.22;47488.31;5016108;28;20178;-86
2022/09/22 02:04:51;;;;;;;7.00;4.50;;;;;;;-141.97;66.12;47569.06;5016004;28;20163;-87
2022/09/22 02:07:25;;;;;;;6.53;4.43;;;;;;;-141.97;66.51;47572.91;4977571;28;20726;-86
2022/09/22 02:09:51;;;;;;;6.27;4.30;;;;;;;-141.97;66.53;47570.97;4994622;28;20166;-86
2022/09/22 02:12:17;;;;;;;7.03;4.60;;;;;;;-141.97;66.63;47488.31;4981486;28;20198;-87
2022/09/22 02:14:44;;;;;;;6.37;4.00;;;;;;;-141.97;66.74;47496.00;4993619;28;20195;-87
2022/09/22 02:17:10;;;;;;;6.33;4.30;;;;;;;-141.97;67.26;47522.91;4993509;28;20727;-85
2022/09/22 02:19:37;;;;;;;6.00;4.40;;;;;;;-141.97;67.00;47559.44;4993590;28;20191;-87
2022/09/22 02:22:04;;;;;;;5.83;4.23;;;;;;;-141.97;66.66;47561.38;4977573;28;20168;-86
2022/09/22 02:24:36;;;;;;;6.87;4.57;;;;;;;-141.97;66.51;47645.94;4993919;28;20219;-86
2022/09/22 02:27:11;;;;;;;5.47;3.77;;;;;;;-141.97;66.84;47449.88;4994106;28;20171;-85
2022/09/22 02:29:39;;;;;;;6.17;3.90;;;;;;;-141.97;66.80;47540.22;4993297;28;20639;-86
2022/09/22 02:32:13;;;;;;;5.37;3.90;;;;;;;-141.97;66.94;47551.75;4994157;28;20175;-87
2022/09/22 02:34:39;;;;;;;5.67;4.37;;;;;;;-141.97;67.28;47522.91;4994110;28;20175;-86
2022/09/22 02:37:16;;;;;;;5.67;3.90;;;;;;;-141.97;67.91;47547.91;4994467;28;20190;-86
2022/09/22 02:40:07;;;;;;;5.37;3.67;;;;;;;-141.97;67.92;47519.06;4995496;28;20203;-88
2022/09/22 02:42:36;;;;;;;5.70;3.70;;;;;;;-141.97;68.49;47572.91;4995434;28;20262;-86
2022/09/22 02:45:18;;;;;;;5.33;3.83;;;;;;;-141.97;68.33;47542.16;5015176;28;20163;-86
2022/09/22 02:47:56;;;;;;;4.30;3.30;;;;;;;-141.97;67.66;47517.16;5015488;28;20169;-86
2022/09/22 02:50:24;;;;;;;5.33;3.40;;;;;;;-141.97;67.61;47580.59;5014029;28;20163;-85
2022/09/22 02:53:00;;;;;;;5.73;4.03;;;;;;;-141.97;67.03;47557.53;5015838;28;20627;-85
2022/09/22 02:55:25;;;;;;;5.97;3.93;;;;;;;-141.97;67.14;47559.44;5015673;28;20245;-86
2022/09/22 02:57:50;;;;;;;5.43;4.10;;;;;;;-141.97;66.65;47536.38;5015782;28;20205;-85
2022/09/22 03:00:16;;;;;;;5.90;3.57;;;;;;;-141.97;66.51;47538.28;5015510;28;20224;-86
2022/09/22 03:02:41;;;;;;;5.60;3.93;;;;;;;-141.97;66.83;47555.59;5014975;28;20230;-88
2022/09/22 03:05:07;;;;;;;7.33;4.77;;;;;;;-141.97;66.77;47705.53;5015536;28;20193;-86
2022/09/22 03:07:32;;;;;;;6.27;4.60;;;;;;;-141.97;66.74;47561.38;5015509;28;20167;-87
2022/09/22 03:09:57;;;;;;;7.60;5.10;;;;;;;-141.97;67.05;47538.28;5015959;28;20224;-84
2022/09/22 03:12:23;;;;;;;7.43;5.07;;;;;;;-141.97;67.10;47542.16;5016322;28;20558;-86
2022/09/22 03:14:51;;;;;;;7.53;4.73;;;;;;;-141.97;67.17;47540.22;5014652;28;20162;-87
2022/09/22 03:17:17;;;;;;;7.13;5.20;;;;;;;-141.97;67.43;47565.22;5014501;28;20301;-87
2022/09/22 03:19:42;;;;;;;9.17;5.33;;;;;;;-141.97;67.70;47486.41;5014316;28;20263;-86
2022/09/22 03:22:08;;;;;;;10.20;5.70;;;;;;;-141.97;68.21;47474.88;5013775;28;20294;-87
2022/09/22 03:24:33;;;;;;;7.57;5.37;;;;;;;-141.97;68.62;47538.28;5014221;28;20193;-87
2022/09/22 03:26:59;;;;;;;8.57;5.47;;;;;;;-141.97;68.72;47549.84;5013264;28;20167;-86
2022/09/22 03:29:24;;;;;;;7.67;5.83;;;;;;;-141.97;69.22;47655.53;5013956;28;20253;-87
2022/09/22 03:31:50;;;;;;;8.70;5.80;;;;;;;-141.97;69.37;47544.06;5013754;28;20185;-87
2022/09/22 03:34:15;;;;;;;8.00;4.67;;;;;;;-141.97;69.34;47553.69;5014479;28;20180;-86
2022/09/22 03:36:41;;;;;;;7.27;5.30;;;;;;;-141.97;69.37;47521.00;5014310;28;20173;-87
2022/09/22 03:39:06;;;;;;;8.77;6.10;;;;;;;-141.97;69.84;47626.72;5014502;28;20591;-86
2022/09/22 03:41:32;;;;;;;9.73;6.20;;;;;;;-141.97;69.64;47588.28;5014878;28;20225;-85
2022/09/22 03:43:57;;;;;;;9.57;6.43;;;;;;;-141.97;69.66;47599.81;5014520;28;20198;-86
2022/09/22 03:46:23;;;;;;;8.63;5.70;;;;;;;-141.97;70.11;47717.06;5013773;28;20159;-86
2022/09/22 03:48:51;;;;;;;8.33;5.90;;;;;;;-141.97;70.21;47551.75;5013542;28;20233;-87
2022/09/22 03:51:18;;;;;;;10.73;6.33;;;;;;;-141.97;69.98;47449.88;5013694;28;20174;-87
2022/09/22 03:53:44;;;;;;;9.47;6.30;;;;;;;-141.97;70.50;47622.88;5013963;28;20201;-88
2022/09/22 03:56:13;;;;;;;9.13;6.70;;;;;;;-141.97;70.27;47615.19;5014234;28;20674;-85
2022/09/22 03:58:39;;;;;;;10.27;6.20;;;;;;;-141.97;70.72;47507.53;5017783;28;20173;-87
2022/09/22 04:01:06;;;;;;;10.00;6.50;;;;;;;-141.97;70.49;47559.44;5014184;28;20692;-86
2022/09/22 04:03:32;;;;;;;9.27;5.70;;;;;;;-141.97;70.70;47526.75;5014314;28;20159;-87
2022/09/22 04:05:57;;;;;;;10.87;6.33;;;;;;;-141.97;70.77;47655.53;5012978;28;20232;-87
2022/09/22 04:08:23;;;;;;;9.67;6.80;;;;;;;-141.97;70.71;47653.63;5014158;28;20179;-87
2022/09/22 04:10:48;;;;;;;9.60;6.10;;;;;;;-141.97;70.73;47494.09;5014991;28;20166;-86
2022/09/22 04:13:14;;;;;;;9.47;6.23;;;;;;;-141.97;70.73;47546.00;5014522;28;20190;-87
2022/09/22 04:15:40;;;;;;;11.70;7.03;;;;;;;-141.97;70.66;47638.25;5013629;28;20163;-86
2022/09/22 04:18:05;;;;;;;11.07;7.47;;;;;;;-141.97;70.53;47638.25;5013722;28;20174;-86
2022/09/22 04:20:31;;;;;;;10.63;7.10;;;;;;;-141.97;70.07;47684.38;5014334;28;20665;-85
2022/09/22 04:22:56;;;;;;;9.13;6.60;;;;;;;-141.97;70.40;47330.72;5013177;28;20170;-86
2022/09/22 04:25:22;;;;;;;10.33;6.90;;;;;;;-141.97;70.35;47557.53;5013611;28;20175;-86
2022/09/22 04:27:47;;;;;;;9.50;6.60;;;;;;;-141.97;70.27;47538.28;5011700;28;20270;-85
2022/09/22 04:30:13;;;;;;;10.13;6.57;;;;;;;-141.97;70.24;47547.91;5012150;28;20248;-86
2022/09/22 04:32:39;;;;;;;9.17;6.53;;;;;;;-141.97;70.29;47538.28;5013721;28;20170;-86
2022/09/22 04:35:05;;;;;;;9.33;6.73;;;;;;;-141.97;70.21;47524.84;5013426;28;20175;-85
2022/09/22 04:37:31;;;;;;;11.40;6.67;;;;;;;-141.97;69.86;47532.53;5013827;28;20170;-86
2022/09/22 04:39:58;;;;;;;8.73;6.60;;;;;;;-141.97;69.92;47588.28;5015066;28;20597;-86
2022/09/22 04:42:24;;;;;;;10.67;6.63;;;;;;;-141.97;69.89;47565.22;5013714;28;20670;-86
2022/09/22 04:44:49;;;;;;;10.60;6.87;;;;;;;-141.97;69.90;47599.81;5013516;28;20201;-86
2022/09/22 04:47:15;;;;;;;9.83;6.80;;;;;;;-141.97;69.21;47546.00;5013189;28;20162;-87
2022/09/22 04:49:40;;;;;;;10.73;7.30;;;;;;;-141.97;69.41;47711.28;5013776;28;20189;-86
2022/09/22 04:52:06;;;;;;;10.00;6.90;;;;;;;-141.97;69.46;47567.13;5014389;28;20174;-84
2022/09/22 04:54:32;;;;;;;10.00;6.77;;;;;;;-141.97;69.19;47536.38;5019415;28;20578;-90
2022/09/22 04:56:57;;;;;;;9.07;6.33;;;;;;;-141.97;69.03;47657.47;5022333;28;20166;-87
2022/09/22 04:59:23;;;;;;;8.63;6.33;;;;;;;-141.97;68.48;47559.44;5049875;28;20270;-84
2022/09/22 05:01:48;;;;;;;9.43;6.30;;;;;;;-141.97;68.73;47567.13;5018397;28;20603;-86
2022/09/22 05:04:13;;;;;;;8.27;5.43;;;;;;;-141.97;68.30;47580.59;5018039;28;20198;-86
2022/09/22 05:06:40;;;;;;;10.10;6.50;;;;;;;-141.97;68.50;47594.03;5016726;28;20210;-84
2022/09/22 05:09:06;;;;;;;9.37;6.47;;;;;;;-141.97;68.02;47565.22;5016449;28;20577;-88
2022/09/22 05:11:32;;;;;;;10.30;6.70;;;;;;;-141.97;68.10;47476.78;5017913;28;20179;-85
2022/09/22 05:13:57;;;;;;;8.00;6.20;;;;;;;-141.97;67.25;47576.75;5017928;28;20167;-86
2022/09/22 05:16:24;;;;;;;9.50;5.83;;;;;;;-141.97;67.09;47497.94;5017690;28;20659;-86
2022/09/22 05:18:49;;;;;;;9.73;6.60;;;;;;;-141.97;67.43;47655.53;5018147;28;20627;-86
2022/09/22 05:21:18;;;;;;;10.70;6.33;;;;;;;-141.97;67.09;47699.75;5017702;28;20221;-86
2022/09/22 05:23:45;;;;;;;9.70;5.83;;;;;;;-141.97;66.67;47586.34;5016728;28;20182;-86
2022/09/22 05:26:10;;;;;;;7.80;5.53;;;;;;;-141.97;66.24;47484.47;5017673;28;20163;-87
2022/09/22 05:28:36;;;;;;;8.00;5.70;;;;;;;-141.97;65.41;47428.75;5017117;28;20306;-87
2022/09/22 05:31:02;;;;;;;8.37;6.13;;;;;;;-141.97;65.38;47565.22;5015870;28;20179;-88
2022/09/22 05:33:28;;;;;;;7.50;4.83;;;;;;;-141.97;65.04;47588.28;5015785;28;20167;-87
2022/09/22 05:35:53;;;;;;;9.23;5.43;;;;;;;-141.97;65.12;47530.59;5019768;28;20162;-86
2022/09/22 05:38:19;;;;;;;8.30;6.03;;;;;;;-141.97;65.06;47580.59;5017557;28;20171;-86
2022/09/22 05:40:46;;;;;;;7.77;5.43;;;;;;;-141.97;64.43;47688.22;5016605;28;20186;-86
2022/09/22 05:43:11;;;;;;;7.03;5.07;;;;;;;-141.97;64.31;47553.69;5018151;28;20616;-85
2022/09/22 05:45:37;;;;;;;10.77;6.03;;;;;;;-141.97;64.08;47584.44;5017518;28;20254;-86
2022/09/22 05:48:02;;;;;;;9.37;4.97;;;;;;;-141.97;63.36;47511.38;5016320;28;20181;-86
2022/09/22 05:50:28;;;;;;;9.57;5.50;;;;;;;-141.97;63.14;47455.66;5016847;28;20169;-87
2022/09/22 05:53:05;;;;;;;10.10;5.80;;;;;;;-141.97;63.05;47569.06;5016695;28;20197;-86
2022/09/22 05:55:31;;;;;;;10.30;6.33;;;;;;;-141.97;62.55;47555.59;5018314;28;20253;-88
2022/09/22 05:57:57;;;;;;;9.50;4.93;;;;;;;-141.97;62.34;47549.84;5019563;28;20201;-86
2022/09/22 06:00:23;;;;;;;9.27;5.70;;;;;;;-141.97;62.39;47642.09;5017724;28;20187;-86
2022/09/22 06:02:48;;;;;;;11.13;5.43;;;;;;;-141.97;62.09;47542.16;5016962;28;20517;-85
2022/09/22 06:05:13;;;;;;;7.17;4.93;;;;;;;-141.97;61.39;47496.00;5032165;28;20255;-85
2022/09/22 06:07:39;;;;;;;8.53;5.43;;;;;;;-141.97;61.64;47720.91;5017887;28;20182;-86
2022/09/22 06:10:05;;;;;;;7.40;5.57;;;;;;;-141.97;61.74;47695.91;5016517;28;20169;-85
2022/09/22 06:12:31;;;;;;;9.13;5.60;;;;;;;-141.97;61.15;47547.91;5015663;28;20175;-87
2022/09/22 06:14:56;;;;;;;8.63;5.83;;;;;;;-141.97;60.62;47547.91;5015490;28;20169;-85
2022/09/22 06:17:22;;;;;;;8.47;6.17;;;;;;;-141.97;60.07;47465.25;5014754;28;20241;-86
2022/09/22 06:19:49;;;;;;;8.23;5.80;;;;;;;-141.97;59.54;47503.69;5016410;28;20554;-87
2022/09/22 06:22:16;;;;;;;10.57;5.10;;;;;;;-141.97;59.55;47572.91;5016099;28;20154;-84
2022/09/22 06:24:42;;;;;;;8.03;5.73;;;;;;;-141.97;59.28;47684.38;5015704;28;20175;-86
2022/09/22 06:27:07;;;;;;;11.17;5.70;;;;;;;-141.97;58.53;47582.50;5016918;28;20174;-88
2022/09/22 06:29:33;;;;;;;8.63;6.07;;;;;;;-141.97;58.36;47538.28;5018309;28;20163;-86
2022/09/22 06:31:58;;;;;;;6.20;4.70;;;;;;;-141.97;58.00;47582.50;5018822;28;20229;-85
2022/09/22 06:34:26;;;;;;;10.93;5.40;;;;;;;-141.97;58.36;47492.16;5015801;28;20167;-89
2022/09/22 06:36:54;;;;;;;6.93;5.53;;;;;;;-141.97;58.36;47542.16;5015557;28;20159;-87
2022/09/22 06:39:20;;;;;;;9.43;5.90;;;;;;;-141.97;57.32;47461.41;5014824;28;20700;-86
2022/09/22 06:41:46;;;;;;;9.40;4.50;;;;;;;-141.97;57.04;47584.44;5014950;28;20187;-85
2022/09/22 06:44:11;;;;;;;5.77;4.97;;;;;;;-141.97;57.08;47572.91;5015328;28;20217;-86
2022/09/22 06:46:37;;;;;;;6.63;5.43;;;;;;;-141.97;56.78;47572.91;5014687;28;20662;-87
2022/09/22 06:49:03;;;;;;;6.83;5.10;;;;;;;-141.97;56.07;47569.06;5015215;28;20274;-87
2022/09/22 06:51:34;;;;;;;7.13;5.17;;;;;;;-141.97;55.91;47459.50;5015082;28;20191;-86
2022/09/22 06:54:03;;;;;;;6.27;4.43;;;;;;;-141.97;54.86;47582.50;5015708;28;20189;-86
2022/09/22 06:56:33;;;;;;;6.27;5.10;;;;;;;-141.97;54.53;47499.84;5015906;28;20171;-86
2022/09/22 06:58:59;;;;;;;8.40;4.63;;;;;;;-141.97;54.30;47553.69;5015268;28;20206;-86
2022/09/22 07:01:30;;;;;;;7.80;5.00;;;;;;;-141.97;54.18;47569.06;5016315;28;20645;-87
2022/09/22 07:03:58;;;;;;;5.53;4.30;;;;;;;-141.97;53.52;47597.88;5015938;28;20162;-86
2022/09/22 07:06:25;;;;;;;5.70;4.83;;;;;;;-141.97;52.72;47476.78;5014647;28;20202;-85
2022/09/22 07:08:50;;;;;;;5.83;5.10;;;;;;;-141.97;52.54;47503.69;5015589;28;20190;-84
2022/09/22 07:11:22;;;;;;;7.07;4.90;;;;;;;-141.97;51.68;47576.75;5015984;28;20167;-86
2022/09/22 07:13:50;;;;;;;5.10;4.40;;;;;;;-141.97;51.10;47546.00;5013870;28;20185;-87
2022/09/22 07:16:17;;;;;;;7.53;4.90;;;;;;;-141.97;51.69;47524.84;5014481;28;20309;-86
2022/09/22 07:18:48;;;;;;;6.70;4.70;;;;;;;-141.97;51.19;47521.00;5014801;28;20170;-86
2022/09/22 07:21:26;;;;;;;6.17;5.13;;;;;;;-141.97;50.94;47688.22;5013266;28;20194;-87
2022/09/22 07:23:56;;;;;;;6.03;4.53;;;;;;;-141.97;49.98;47561.38;5014624;28;20583;-86
2022/09/22 07:26:33;;;;;;;6.33;4.50;;;;;;;-141.97;50.00;47509.47;5037856;28;20183;-86
2022/09/22 07:29:04;;;;;;;12.77;4.47;;;;;;;-141.97;49.66;47542.16;5009352;28;20208;-86
2022/09/22 07:31:33;;;;;;;5.80;4.30;;;;;;;-141.97;48.72;47530.59;5014722;28;20177;-86
2022/09/22 07:33:59;;;;;;;5.97;4.40;;;;;;;-141.97;47.49;47457.56;5019176;28;20170;-86
2022/09/22 07:36:27;;;;;;;4.93;3.97;;;;;;;-141.97;47.76;47526.75;5016828;28;20557;-86
2022/09/22 07:38:56;;;;;;;7.03;4.23;;;;;;;-141.97;48.06;47570.97;5027628;28;20173;-86
2022/09/22 07:41:26;;;;;;;4.97;4.27;;;;;;;-141.97;47.39;47547.91;5025418;28;20660;-86
2022/09/22 07:43:55;;;;;;;4.27;3.37;;;;;;;-141.97;47.80;47534.44;5022469;28;20167;-84
2022/09/22 07:46:21;;;;;;;4.50;3.77;;;;;;;-141.97;46.95;47530.59;5014315;28;20197;-86
2022/09/22 07:48:46;;;;;;;6.27;3.93;;;;;;;-141.97;46.78;47469.09;5014942;28;20229;-86
2022/09/22 07:51:19;;;;;;;4.47;3.90;;;;;;;-141.97;46.10;47522.91;5014327;28;20167;-86
2022/09/22 07:54:08;;;;;;;5.13;3.80;;;;;;;-141.97;46.45;47570.97;5014489;28;20170;-86
2022/09/22 07:56:40;;;;;;;6.37;4.20;;;;;;;-141.97;45.43;47530.59;5013993;28;20174;-86
2022/09/22 07:59:09;;;;;;;6.70;4.20;;;;;;;-141.97;44.23;47536.38;5014215;28;20159;-86
2022/09/22 08:01:42;;;;;;;5.93;4.27;;;;;;;-141.97;44.67;47521.00;5013988;28;20166;-86
2022/09/22 08:04:14;;;;;;;5.23;3.60;;;;;;;-141.97;45.38;47524.84;5013993;28;20182;-87
2022/09/22 08:06:40;;;;;;;5.10;4.23;;;;;;;-141.97;44.82;47542.16;5013914;28;20607;-86
2022/09/22 08:09:07;;;;;;;4.80;4.30;;;;;;;-141.97;44.47;47538.28;5014245;28;20643;-87
2022/09/22 08:11:32;;;;;;;6.93;3.70;;;;;;;-141.97;44.75;47549.84;5013640;28;20606;-87
2022/09/22 08:14:00;;;;;;;5.47;4.20;;;;;;;-141.97;45.05;47546.00;5014101;28;20188;-87
2022/09/22 08:16:28;;;;;;;5.13;4.00;;;;;;;-141.97;44.85;47526.75;5013653;28;20245;-86
2022/09/22 08:18:58;;;;;;;5.77;3.97;;;;;;;-141.97;42.78;47549.84;5014123;28;20198;-87
2022/09/22 08:21:34;;;;;;;4.10;3.30;;;;;;;-141.97;43.11;47488.31;5014090;28;20198;-86
2022/09/22 08:24:03;;;;;;;4.23;3.60;;;;;;;-141.97;43.00;47532.53;5013904;28;20162;-86
2022/09/22 08:26:29;;;;;;;3.10;2.53;;;;;;;-141.97;42.46;47557.53;5012060;28;20660;-86
2022/09/22 08:28:55;;;;;;;3.70;3.10;;;;;;;-141.97;41.96;47522.91;5013768;28;20234;-86
2022/09/22 08:31:24;;;;;;;4.87;3.50;;;;;;;-141.97;41.99;47519.06;5011679;28;20186;-85
2022/09/22 08:33:51;;;;;;;4.60;3.00;;;;;;;-141.97;40.76;47505.63;5012656;28;20158;-86
2022/09/22 08:36:16;;;;;;;3.53;3.00;;;;;;;-141.97;40.80;47546.00;5014509;28;20194;-87
2022/09/22 08:38:47;;;;;;;4.67;3.13;;;;;;;-141.97;40.26;47534.44;5014857;28;20159;-87
2022/09/22 08:41:27;;;;;;;4.60;2.77;;;;;;;-141.97;40.92;47480.63;5014412;28;20256;-87
2022/09/22 08:43:55;;;;;;;7.20;3.00;;;;;;;-141.97;40.17;47522.91;5014808;28;20171;-87
2022/09/22 08:46:28;;;;;;;3.63;2.90;;;;;;;-141.97;39.49;47522.91;5014398;28;20303;-87
2022/09/22 08:51:53;;;;;;;4.83;3.00;;;;;;;-141.97;39.73;47478.72;5013911;28;20596;-87
2022/09/22 08:54:23;;;;;;;3.07;2.77;;;;;;;-141.97;38.61;47438.34;5013562;28;20186;-87
2022/09/22 08:57:10;;;;;;;3.30;3.00;;;;;;;-141.97;38.78;47522.91;5012247;28;20178;-87
2022/09/22 09:00:04;;;;;;;7.13;3.50;;;;;;;-141.97;39.36;47496.00;5013410;28;20190;-87
2022/09/22 09:02:48;;;;;;;3.90;3.20;;;;;;;-141.97;39.68;47515.22;5013619;28;20611;-86
2022/09/22 09:05:22;;;;;;;5.00;3.40;;;;;;;-141.97;39.26;47497.94;5013311;28;20698;-87
2022/09/22 09:08:08;;;;;;;3.63;3.20;;;;;;;-141.97;38.64;47636.31;5014063;28;20190;-87
2022/09/22 09:10:52;;;;;;;4.13;3.43;;;;;;;-141.97;39.21;47530.59;5021462;28;20166;-85
2022/09/22 09:13:37;;;;;;;5.23;3.50;;;;;;;-141.97;38.55;47522.91;5018649;28;20185;-86
2022/09/22 09:16:19;;;;;;;5.00;2.90;;;;;;;-141.97;37.02;47497.94;5012634;28;20230;-85
2022/09/22 09:18:55;;;;;;;3.90;2.80;;;;;;;-141.97;38.21;47484.47;5011363;28;20201;-86
2022/09/22 09:21:22;;;;;;;2.80;2.60;;;;;;;-141.97;39.08;47522.91;5012989;28;20642;-86
2022/09/22 09:23:53;;;;;;;4.63;2.57;;;;;;;-141.97;39.00;47674.78;5014412;28;20178;-86
2022/09/22 09:26:19;;;;;;;2.80;2.50;;;;;;;-141.97;37.77;47455.66;5013339;28;20236;-86
2022/09/22 09:28:59;;;;;;;2.80;2.40;;;;;;;-141.97;37.22;47499.84;5013310;28;20170;-86
2022/09/22 09:31:50;;;;;;;2.60;2.40;;;;;;;-141.97;37.25;47511.38;5013219;28;20232;-86
2022/09/22 09:34:19;;;;;;;2.80;2.60;;;;;;;-141.97;36.44;47484.47;5015093;28;20163;-86
2022/09/22 09:36:54;;;;;;;3.70;3.00;;;;;;;-141.97;36.43;47511.38;5012146;28;20190;-85
2022/09/22 09:39:36;;;;;;;3.40;3.00;;;;;;;-141.97;35.85;47501.78;5013415;28;20697;-86
2022/09/22 09:42:18;;;;;;;3.77;2.50;;;;;;;-141.97;34.89;47471.03;5015560;28;20163;-87
2022/09/22 09:44:45;;;;;;;2.60;2.40;;;;;;;-141.97;35.27;47472.94;5014766;28;20206;-87
2022/09/22 09:47:26;;;;;;;3.40;2.57;;;;;;;-141.97;34.38;47486.41;5016491;28;20200;-86
2022/09/22 09:49:53;;;;;;;3.13;2.50;;;;;;;-141.97;34.34;47484.47;5016677;28;20563;-86
2022/09/22 09:52:20;;;;;;;2.27;2.07;;;;;;;-141.97;34.93;47438.34;5015739;28;20171;-85
2022/09/22 09:54:48;;;;;;;2.37;2.17;;;;;;;-141.97;35.36;47492.16;5018026;28;20658;-88
2022/09/22 09:57:16;;;;;;;2.53;1.90;;;;;;;-141.97;35.11;47467.19;5019282;28;20177;-87
2022/09/22 10:02:32;;;;;;;3.57;2.40;;;;;;;-141.97;34.28;47478.72;5016436;28;20178;-85
2022/09/22 10:05:05;;;;;;;4.20;2.40;;;;;;;-141.97;34.01;47497.94;5015997;28;20174;-86
2022/09/22 10:07:40;;;;;;;5.33;3.13;;;;;;;-141.97;34.39;47513.31;5016838;28;20174;-85
2022/09/22 10:10:27;;;;;;;3.20;2.50;;;;;;;-141.97;33.64;47471.03;5016296;28;20177;-86
2022/09/22 10:12:55;;;;;;;4.37;2.30;;;;;;;-141.97;32.88;47480.63;5016319;28;20546;-87
2022/09/22 10:15:24;;;;;;;4.87;2.60;;;;;;;-141.97;33.73;47474.88;5016037;28;20205;-87
2022/09/22 10:17:50;;;;;;;2.00;1.90;;;;;;;-141.97;33.95;47503.69;5014932;28;20702;-86
2022/09/22 10:20:30;;;;;;;2.33;1.90;;;;;;;-141.97;33.61;47486.41;5015855;28;20344;-87
2022/09/22 10:23:20;;;;;;;2.20;2.00;;;;;;;-141.97;32.62;47459.50;5016218;28;21026;-86
2022/09/22 10:25:47;;;;;;;2.37;2.17;;;;;;;-141.97;33.21;47505.63;5016287;28;20194;-86
2022/09/22 10:28:18;;;;;;;4.77;2.10;;;;;;;-141.97;32.72;47507.53;5016520;28;20559;-88
2022/09/22 10:30:57;;;;;;;2.57;2.27;;;;;;;-141.97;31.84;47471.03;5016744;28;20189;-87
2022/09/22 10:33:22;;;;;;;3.07;2.20;;;;;;;-141.97;32.10;47488.31;5015500;28;20167;-87
2022/09/22 10:36:06;;;;;;;2.33;2.13;;;;;;;-141.97;33.47;47663.22;5016662;28;20167;-86
2022/09/22 10:38:38;;;;;;;2.50;2.30;;;;;;;-141.97;33.25;47369.16;5015702;28;20170;-86
2022/09/22 10:41:16;;;;;;;3.27;2.30;;;;;;;-141.97;32.53;47519.06;5019993;28;20263;-86
2022/09/22 10:43:59;;;;;;;2.13;1.87;;;;;;;-141.97;32.62;47478.72;5020660;28;20175;-88
2022/09/22 10:46:49;;;;;;;2.47;2.00;;;;;;;-141.97;32.04;47496.00;5015739;28;20204;-87
2022/09/22 10:49:39;;;;;;;2.67;2.30;;;;;;;-141.97;31.01;47474.88;5017819;28;20163;-87
2022/09/22 10:52:12;;;;;;;2.20;2.00;;;;;;;-141.97;30.71;47488.31;5015565;28;20638;-87
2022/09/22 10:55:07;;;;;;;4.73;3.80;;;;;;;-141.97;31.32;47494.09;5015798;28;20217;-87
2022/09/22 10:57:48;;;;;;;4.03;2.57;;;;;;;-141.97;31.58;47494.09;5014459;28;20552;-87
2022/09/22 11:00:19;;;;;;;4.83;2.80;;;;;;;-141.97;31.44;47472.94;5015054;28;20703;-87
2022/09/22 11:03:02;;;;;;;2.63;2.17;;;;;;;-141.97;31.64;47469.09;5015173;28;20229;-87
2022/09/22 11:14:18;;;;;;;2.30;1.90;;;;;;;-141.97;31.15;47463.34;5015950;28;20539;-86
2022/09/22 11:17:11;;;;;;;2.50;2.30;;;;;;;-141.97;31.77;47494.09;5017486;28;20230;-86
2022/09/22 11:19:46;;;;;;;2.43;2.10;;;;;;;-141.97;32.07;47478.72;5013798;28;20289;-86
2022/09/22 11:22:29;;;;;;;2.70;2.40;;;;;;;-141.97;32.53;47465.25;5014473;28;20184;-85
2022/09/22 11:25:28;;;;;;;2.47;2.13;;;;;;;-141.97;32.74;47446.03;5015078;28;20621;-86
2022/09/22 11:28:03;;;;;;;3.43;2.00;;;;;;;-141.97;32.42;47503.69;5015109;28;20607;-86
2022/09/22 11:30:50;;;;;;;3.77;2.50;;;;;;;-141.97;32.83;47465.25;5014999;28;20159;-86
2022/09/22 11:33:15;;;;;;;3.57;2.10;;;;;;;-141.97;32.65;47478.72;5014503;28;20163;-86
2022/09/22 11:36:09;;;;;;;3.00;2.00;;;;;;;-141.97;32.39;47472.94;5014695;28;20221;-86
2022/09/22 11:39:08;;;;;;;2.43;2.00;;;;;;;-141.97;32.08;47492.16;5014582;28;20635;-86
2022/09/22 11:41:45;;;;;;;4.33;2.50;;;;;;;-141.97;32.12;47480.63;5014402;28;20240;-86
2022/09/22 11:44:47;;;;;;;5.40;2.73;;;;;;;-141.97;32.39;47453.72;5015994;28;20162;-87
2022/09/22 11:47:27;;;;;;;4.47;2.40;;;;;;;-141.97;32.30;47496.00;5017058;28;20174;-86
2022/09/22 11:50:31;;;;;;;3.13;2.33;;;;;;;-141.97;32.02;47484.47;5016639;28;20659;-87